Time;durP1;ratioP1;P1;durP2;ratioP2;P2;SDS_P1;SDS_P2;PMS_P1;PMS_P2;Temp;Humidity;BMP_temperature;BMP_pressure;BME280_temperature;BME280_humidity;BME280_pressure;Samples;Min_cycle;Max_cycle;Signal;HPM_P1;HPM_P2
2024/01/21 00:01:20;;;;;;;4.70;3.42;;;1.60;96.30;;;;;;5047291;28;20235;-45
2024/01/21 00:03:49;;;;;;;3.92;2.75;;;1.60;96.40;;;;;;5048810;28;20226;-47
2024/01/21 00:06:17;;;;;;;3.72;2.92;;;1.60;96.60;;;;;;5043403;28;20239;-46
2024/01/21 00:08:45;;;;;;;6.93;2.80;;;1.60;96.70;;;;;;5051551;28;20260;-46
2024/01/21 00:11:13;;;;;;;5.10;3.28;;;1.60;96.90;;;;;;5053411;28;20216;-46
2024/01/21 00:13:42;;;;;;;5.40;2.70;;;1.60;96.60;;;;;;5048110;28;20432;-46
2024/01/21 00:16:10;;;;;;;3.65;2.45;;;1.60;96.90;;;;;;5045822;28;20205;-45
2024/01/21 00:18:39;;;;;;;4.72;2.70;;;1.60;96.90;;;;;;5041770;28;20455;-45
2024/01/21 00:21:08;;;;;;;4.43;3.15;;;1.60;96.70;;;;;;5049764;28;20223;-45
2024/01/21 00:23:36;;;;;;;5.55;2.90;;;1.60;95.90;;;;;;5052657;28;20227;-45
2024/01/21 00:26:04;;;;;;;5.30;3.33;;;1.60;95.70;;;;;;5053326;28;20555;-45
2024/01/21 00:28:32;;;;;;;3.72;2.83;;;1.60;95.70;;;;;;5045910;28;20224;-46
2024/01/21 00:31:04;;;;;;;3.33;2.67;;;1.60;95.70;;;;;;5051439;28;20209;-46
2024/01/21 00:33:32;;;;;;;5.70;3.17;;;1.60;95.70;;;;;;5053622;28;20881;-46
2024/01/21 00:36:01;;;;;;;5.68;3.22;;;1.50;95.70;;;;;;5053940;28;20203;-45
2024/01/21 00:38:29;;;;;;;3.10;2.70;;;1.50;95.70;;;;;;5048664;28;20220;-45
2024/01/21 00:40:58;;;;;;;3.80;3.13;;;1.50;95.70;;;;;;5047331;28;20208;-46
2024/01/21 00:43:27;;;;;;;2.92;2.53;;;1.50;95.70;;;;;;5050460;28;20188;-45
2024/01/21 00:45:55;;;;;;;4.95;2.78;;;1.50;95.70;;;;;;5055619;28;20192;-45
2024/01/21 00:48:23;;;;;;;3.50;2.35;;;1.50;95.70;;;;;;5063758;28;20189;-46
2024/01/21 00:50:51;;;;;;;3.28;2.63;;;1.50;95.70;;;;;;5065497;28;20207;-46
2024/01/21 00:53:21;;;;;;;4.68;3.20;;;1.50;96.10;;;;;;5064657;28;20230;-46
2024/01/21 00:55:49;;;;;;;6.00;2.97;;;1.50;95.70;;;;;;5065282;28;20193;-46
2024/01/21 00:58:18;;;;;;;3.97;2.65;;;1.50;95.70;;;;;;5065454;28;20197;-47
2024/01/21 01:00:46;;;;;;;5.57;2.90;;;1.50;95.70;;;;;;5065743;28;20186;-45
2024/01/21 01:03:14;;;;;;;4.00;2.58;;;1.50;95.70;;;;;;5064749;28;20196;-46
2024/01/21 01:05:42;;;;;;;3.75;2.97;;;1.50;95.70;;;;;;5062971;28;20264;-46
2024/01/21 01:08:11;;;;;;;4.35;3.25;;;1.50;95.70;;;;;;5053670;28;20201;-46
2024/01/21 01:10:40;;;;;;;4.80;2.92;;;1.50;95.70;;;;;;5029715;28;20251;-46
2024/01/21 01:13:08;;;;;;;3.40;2.25;;;1.50;95.70;;;;;;5049034;28;20212;-45
2024/01/21 01:15:37;;;;;;;2.65;2.38;;;1.50;95.70;;;;;;5046268;28;20205;-46
2024/01/21 01:18:05;;;;;;;3.40;2.17;;;1.50;95.70;;;;;;5036924;28;20200;-46
2024/01/21 01:20:33;;;;;;;3.40;2.30;;;1.50;95.70;;;;;;5038104;28;20221;-46
2024/01/21 01:23:01;;;;;;;3.17;2.00;;;1.50;95.70;;;;;;5043452;28;20220;-46
2024/01/21 01:25:29;;;;;;;4.90;2.28;;;1.50;95.80;;;;;;5031046;28;20690;-46
2024/01/21 01:27:59;;;;;;;3.80;2.40;;;1.50;95.70;;;;;;5039278;28;20185;-46
2024/01/21 01:30:27;;;;;;;4.13;2.80;;;1.50;95.70;;;;;;5038098;28;20217;-46
2024/01/21 01:32:55;;;;;;;4.15;2.42;;;1.50;95.70;;;;;;5038849;28;20275;-45
2024/01/21 01:35:25;;;;;;;3.38;2.38;;;1.50;96.00;;;;;;5046368;28;20228;-46
2024/01/21 01:37:53;;;;;;;2.42;1.70;;;1.50;95.70;;;;;;5031290;28;20193;-46
2024/01/21 01:40:21;;;;;;;3.00;2.22;;;1.60;95.70;;;;;;5037997;28;20291;-46
2024/01/21 01:42:57;;;;;;;3.17;2.20;;;1.60;95.70;;;;;;5042556;28;20300;-46
2024/01/21 01:45:27;;;;;;;2.80;1.90;;;1.50;95.70;;;;;;5033274;28;20714;-46
2024/01/21 01:47:56;;;;;;;2.63;1.83;;;1.60;95.70;;;;;;5043095;28;20197;-46
2024/01/21 01:50:26;;;;;;;3.03;2.00;;;1.60;95.70;;;;;;5030574;28;20296;-45
2024/01/21 01:52:55;;;;;;;3.30;2.00;;;1.60;95.70;;;;;;5046706;28;20327;-46
2024/01/21 01:55:23;;;;;;;2.80;1.85;;;1.60;95.70;;;;;;5029198;28;20251;-46
2024/01/21 01:57:52;;;;;;;3.40;1.90;;;1.60;95.70;;;;;;5031722;28;20602;-45
2024/01/21 02:00:20;;;;;;;4.25;2.30;;;1.60;95.60;;;;;;5038071;28;20336;-45
2024/01/21 02:02:51;;;;;;;2.88;2.15;;;1.60;95.70;;;;;;5043751;28;20694;-45
2024/01/21 02:05:20;;;;;;;2.72;2.00;;;1.60;95.70;;;;;;5040144;28;20221;-45
2024/01/21 02:07:48;;;;;;;2.28;2.00;;;1.60;95.70;;;;;;5046253;28;20626;-46
2024/01/21 02:10:17;;;;;;;1.88;1.60;;;1.60;95.70;;;;;;5047397;28;20228;-45
2024/01/21 02:12:46;;;;;;;2.03;1.38;;;1.60;95.70;;;;;;5036215;28;20213;-45
2024/01/21 02:15:14;;;;;;;2.55;1.92;;;1.60;95.70;;;;;;5043059;28;20209;-45
2024/01/21 02:17:42;;;;;;;2.20;1.60;;;1.60;95.70;;;;;;5037747;28;20682;-45
2024/01/21 02:20:13;;;;;;;2.80;1.70;;;1.60;95.70;;;;;;5030720;28;20223;-46
2024/01/21 02:22:41;;;;;;;2.00;1.67;;;1.70;96.30;;;;;;5040102;28;20268;-45
2024/01/21 02:25:11;;;;;;;3.17;2.13;;;1.70;96.10;;;;;;5022068;28;20791;-46
2024/01/21 02:27:39;;;;;;;2.65;1.52;;;1.70;95.70;;;;;;5037247;28;20197;-45
2024/01/21 02:30:08;;;;;;;1.70;1.50;;;1.70;94.70;;;;;;5045705;28;20307;-45
2024/01/21 02:32:36;;;;;;;2.72;1.80;;;1.70;94.90;;;;;;5031390;28;20214;-46
2024/01/21 02:35:05;;;;;;;2.30;1.70;;;1.70;95.20;;;;;;5038838;28;20218;-47
2024/01/21 02:37:33;;;;;;;2.40;1.60;;;1.70;94.80;;;;;;5037801;28;20193;-46
2024/01/21 02:40:01;;;;;;;2.17;1.73;;;1.70;94.80;;;;;;5037947;28;20795;-46
2024/01/21 02:42:31;;;;;;;2.75;1.40;;;1.70;95.00;;;;;;5039715;28;20679;-46
2024/01/21 02:45:00;;;;;;;2.95;1.60;;;1.70;94.80;;;;;;5045313;28;20208;-46
2024/01/21 02:47:28;;;;;;;2.25;1.60;;;1.70;94.90;;;;;;5021842;28;20254;-46
2024/01/21 02:49:56;;;;;;;3.92;1.95;;;1.70;94.90;;;;;;5030477;28;20229;-45
2024/01/21 02:52:25;;;;;;;3.75;1.80;;;1.70;95.20;;;;;;5034382;28;20741;-46
2024/01/21 02:54:53;;;;;;;2.97;1.77;;;1.70;94.70;;;;;;5040792;28;20733;-46
2024/01/21 02:57:21;;;;;;;3.00;1.25;;;1.70;94.80;;;;;;5041817;28;20670;-46
2024/01/21 02:59:51;;;;;;;3.47;1.77;;;1.70;94.80;;;;;;5040695;28;20311;-46
2024/01/21 03:02:20;;;;;;;2.10;1.50;;;1.70;94.40;;;;;;5034224;28;20213;-45
2024/01/21 03:04:48;;;;;;;1.75;1.20;;;1.70;94.20;;;;;;5034106;28;20221;-45
2024/01/21 03:07:16;;;;;;;2.97;1.45;;;1.70;93.90;;;;;;5040987;28;20205;-46
2024/01/21 03:09:45;;;;;;;2.22;1.40;;;1.70;94.20;;;;;;5038665;28;20221;-45
2024/01/21 03:12:13;;;;;;;2.28;1.42;;;1.70;94.10;;;;;;5040600;28;20594;-46
2024/01/21 03:14:41;;;;;;;2.17;1.30;;;1.70;93.90;;;;;;5035402;28;20227;-46
2024/01/21 03:17:11;;;;;;;1.75;1.40;;;1.70;94.30;;;;;;5033868;28;20546;-45
2024/01/21 03:19:39;;;;;;;2.50;1.50;;;1.70;94.30;;;;;;5036113;28;20221;-45
2024/01/21 03:22:08;;;;;;;2.53;1.40;;;1.70;94.50;;;;;;5038541;28;20210;-45
2024/01/21 03:24:36;;;;;;;2.05;1.60;;;1.70;94.10;;;;;;5032882;28;20220;-45
2024/01/21 03:27:05;;;;;;;2.85;1.60;;;1.70;95.00;;;;;;5035982;28;20193;-46
2024/01/21 03:29:33;;;;;;;2.42;1.30;;;1.80;94.70;;;;;;5037825;28;20224;-45
2024/01/21 03:32:01;;;;;;;1.85;1.30;;;1.70;94.80;;;;;;5041124;28;20225;-45
2024/01/21 03:34:30;;;;;;;3.00;1.23;;;1.80;94.40;;;;;;5037743;28;20219;-45
2024/01/21 03:36:59;;;;;;;1.70;1.05;;;1.80;94.50;;;;;;5039621;28;20221;-45
2024/01/21 03:39:27;;;;;;;2.80;1.45;;;1.80;95.50;;;;;;5039330;28;20220;-45
2024/01/21 03:41:55;;;;;;;2.72;1.50;;;1.80;95.20;;;;;;5032183;28;20213;-45
2024/01/21 03:44:24;;;;;;;1.77;1.40;;;1.80;95.20;;;;;;5031788;28;20604;-45
2024/01/21 03:46:52;;;;;;;1.40;1.30;;;1.70;95.00;;;;;;5030480;28;20193;-45
2024/01/21 03:49:20;;;;;;;2.15;1.50;;;1.70;94.60;;;;;;5040232;28;20637;-45
2024/01/21 03:51:49;;;;;;;2.00;1.45;;;1.70;94.80;;;;;;5036240;28;20344;-45
2024/01/21 03:54:18;;;;;;;1.60;1.25;;;1.70;94.20;;;;;;5035239;28;20633;-45
2024/01/21 03:56:47;;;;;;;2.40;1.55;;;1.70;94.40;;;;;;5040204;28;20212;-46
2024/01/21 03:59:15;;;;;;;2.50;1.60;;;1.70;94.30;;;;;;5033802;28;20252;-45
2024/01/21 04:01:43;;;;;;;2.80;1.50;;;1.80;95.10;;;;;;5038917;28;20201;-45
2024/01/21 04:04:13;;;;;;;2.92;1.92;;;1.80;95.00;;;;;;5041980;28;20224;-46
2024/01/21 04:06:42;;;;;;;2.88;1.70;;;1.80;95.80;;;;;;5043747;28;20201;-45
2024/01/21 04:09:13;;;;;;;2.15;1.40;;;1.80;95.80;;;;;;5033011;28;20225;-45
2024/01/21 04:11:43;;;;;;;2.33;1.23;;;1.80;95.80;;;;;;5040850;28;20221;-45
2024/01/21 04:14:11;;;;;;;2.65;1.40;;;1.80;95.70;;;;;;5038928;28;20250;-45
2024/01/21 04:16:39;;;;;;;2.22;1.48;;;1.80;95.40;;;;;;5039832;28;20205;-45
2024/01/21 04:19:09;;;;;;;2.08;1.45;;;1.80;94.60;;;;;;5037419;28;20301;-45
2024/01/21 04:21:37;;;;;;;2.17;1.67;;;1.80;94.90;;;;;;5037940;28;20771;-45
2024/01/21 04:24:06;;;;;;;2.08;1.52;;;1.80;95.70;;;;;;5044230;28;20221;-45
2024/01/21 04:26:36;;;;;;;2.45;1.48;;;1.80;95.00;;;;;;5035712;28;20277;-45
2024/01/21 04:29:04;;;;;;;2.60;1.60;;;1.80;94.60;;;;;;5038632;28;20281;-45
2024/01/21 04:31:32;;;;;;;1.90;1.38;;;1.80;94.00;;;;;;5037846;28;20213;-45
2024/01/21 04:34:00;;;;;;;2.83;1.55;;;1.80;95.80;;;;;;5036326;28;20278;-45
2024/01/21 04:36:29;;;;;;;3.22;1.95;;;1.80;94.60;;;;;;5042227;28;20271;-44
2024/01/21 04:38:57;;;;;;;3.10;1.73;;;1.80;95.20;;;;;;5024546;28;20230;-46
2024/01/21 04:41:25;;;;;;;2.25;1.27;;;1.80;94.80;;;;;;5042720;28;20240;-45
2024/01/21 04:43:55;;;;;;;2.97;1.63;;;1.80;95.20;;;;;;5035326;28;20225;-45
2024/01/21 04:46:24;;;;;;;2.65;1.35;;;1.80;95.00;;;;;;5041552;28;20495;-45
2024/01/21 04:48:53;;;;;;;2.92;1.90;;;1.80;94.40;;;;;;5035909;28;20239;-45
2024/01/21 04:51:21;;;;;;;3.15;1.83;;;1.80;94.60;;;;;;5020730;28;20212;-47
2024/01/21 04:53:50;;;;;;;3.35;1.70;;;1.80;94.10;;;;;;5030178;28;20218;-49
2024/01/21 04:56:19;;;;;;;6.35;2.17;;;1.80;94.20;;;;;;5024206;28;20205;-46
2024/01/21 04:58:47;;;;;;;1.75;1.60;;;1.80;94.30;;;;;;5032958;28;20286;-48
2024/01/21 05:01:17;;;;;;;2.50;1.33;;;1.80;94.70;;;;;;5038251;28;20275;-48
2024/01/21 05:03:46;;;;;;;1.95;1.27;;;1.80;95.00;;;;;;5028127;28;20252;-47
2024/01/21 05:06:14;;;;;;;2.05;1.40;;;1.80;94.80;;;;;;5045303;28;20188;-47
2024/01/21 05:08:43;;;;;;;2.97;1.98;;;1.80;95.00;;;;;;5040820;28;20598;-46
2024/01/21 05:11:13;;;;;;;3.53;1.45;;;1.80;95.80;;;;;;5035340;28;20568;-46
2024/01/21 05:13:41;;;;;;;2.35;1.40;;;1.80;95.20;;;;;;5039380;28;20222;-45
2024/01/21 05:16:20;;;;;;;2.28;1.65;;;1.80;95.80;;;;;;5041543;28;20212;-46
2024/01/21 05:18:48;;;;;;;3.55;1.90;;;1.80;95.20;;;;;;5042412;28;20309;-47
2024/01/21 05:21:21;;;;;;;2.33;1.30;;;1.80;95.10;;;;;;5040159;28;20267;-46
2024/01/21 05:23:51;;;;;;;2.75;1.63;;;1.80;95.80;;;;;;5041895;28;20711;-48
2024/01/21 05:26:20;;;;;;;3.95;1.70;;;1.80;95.90;;;;;;5019546;28;20219;-46
2024/01/21 05:28:48;;;;;;;1.65;1.13;;;1.80;96.50;;;;;;5050133;28;20694;-46
2024/01/21 05:31:17;;;;;;;2.50;1.77;;;1.80;97.10;;;;;;5041125;28;20702;-46
2024/01/21 05:33:46;;;;;;;2.55;1.80;;;1.90;96.70;;;;;;5045982;28;20243;-46
2024/01/21 05:36:18;;;;;;;2.10;1.40;;;1.90;96.70;;;;;;5034375;28;20315;-46
2024/01/21 05:38:46;;;;;;;3.20;1.83;;;1.80;96.50;;;;;;5031547;28;20217;-47
2024/01/21 05:41:17;;;;;;;2.60;2.10;;;1.80;96.40;;;;;;5039763;28;20279;-46
2024/01/21 05:43:45;;;;;;;4.07;2.25;;;1.80;95.80;;;;;;5041070;28;20220;-46
2024/01/21 05:46:14;;;;;;;3.15;2.15;;;1.80;95.60;;;;;;5042706;28;20185;-47
2024/01/21 05:48:42;;;;;;;2.47;2.05;;;1.80;95.00;;;;;;5047756;28;20227;-46
2024/01/21 05:51:12;;;;;;;3.10;2.33;;;1.80;95.80;;;;;;5052173;28;20217;-47
2024/01/21 05:53:41;;;;;;;4.40;2.65;;;1.80;95.10;;;;;;5058727;28;20320;-47
2024/01/21 05:56:10;;;;;;;2.90;2.00;;;1.80;94.80;;;;;;5042655;28;20201;-45
2024/01/21 05:58:38;;;;;;;2.75;2.53;;;1.80;95.50;;;;;;5046357;28;20255;-46
2024/01/21 06:01:06;;;;;;;3.47;2.20;;;1.80;95.80;;;;;;5046246;28;20217;-46
2024/01/21 06:03:35;;;;;;;3.85;2.15;;;1.80;95.80;;;;;;5046984;28;20211;-46
2024/01/21 06:06:04;;;;;;;2.60;1.85;;;1.80;96.20;;;;;;5052378;28;20829;-45
2024/01/21 06:08:34;;;;;;;2.67;2.08;;;1.80;96.30;;;;;;5052819;28;20237;-47
2024/01/21 06:11:02;;;;;;;2.88;2.20;;;1.80;96.00;;;;;;5029737;28;20720;-46
2024/01/21 06:13:30;;;;;;;5.07;2.70;;;1.80;96.10;;;;;;5037274;28;20185;-46
2024/01/21 06:16:00;;;;;;;3.97;2.38;;;1.80;95.80;;;;;;5040260;28;20228;-45
2024/01/21 06:18:28;;;;;;;3.60;2.20;;;1.80;95.80;;;;;;5032144;28;20679;-46
2024/01/21 06:20:57;;;;;;;2.45;2.15;;;1.80;95.80;;;;;;5032822;28;20268;-47
2024/01/21 06:23:25;;;;;;;3.55;2.63;;;1.80;95.80;;;;;;5031776;28;20194;-46
2024/01/21 06:25:54;;;;;;;5.20;2.70;;;1.80;96.10;;;;;;5038667;28;20201;-45
2024/01/21 06:28:23;;;;;;;4.13;2.30;;;1.80;96.20;;;;;;5036799;28;20663;-45
2024/01/21 06:30:51;;;;;;;3.35;2.60;;;1.80;96.70;;;;;;5039896;28;20690;-45
2024/01/21 06:33:20;;;;;;;3.55;1.95;;;1.80;96.50;;;;;;5034517;28;20201;-46
2024/01/21 06:35:48;;;;;;;4.50;3.00;;;1.80;96.50;;;;;;5039795;28;20193;-47
2024/01/21 06:38:16;;;;;;;4.63;3.35;;;1.80;96.30;;;;;;5041189;28;20741;-44
2024/01/21 06:40:45;;;;;;;4.80;3.70;;;1.80;95.90;;;;;;5043370;28;20528;-47
2024/01/21 06:43:15;;;;;;;5.97;3.72;;;1.80;95.80;;;;;;5049328;28;20199;-46
2024/01/21 06:45:43;;;;;;;3.70;2.42;;;1.80;95.70;;;;;;5037306;28;20288;-46
2024/01/21 06:48:12;;;;;;;5.50;3.65;;;1.80;95.80;;;;;;5046686;28;20578;-47
2024/01/21 06:50:40;;;;;;;3.95;3.45;;;1.80;95.80;;;;;;5036026;28;20687;-46
2024/01/21 06:53:08;;;;;;;5.78;3.45;;;1.80;95.80;;;;;;5038816;28;20209;-46
2024/01/21 06:55:36;;;;;;;5.57;3.03;;;1.80;96.10;;;;;;5042531;28;20225;-46
2024/01/21 06:58:05;;;;;;;5.07;2.75;;;1.80;95.80;;;;;;5040518;28;20223;-46
2024/01/21 07:00:37;;;;;;;4.70;2.95;;;1.80;95.80;;;;;;5034343;28;20225;-46
2024/01/21 07:03:05;;;;;;;3.67;2.55;;;1.80;96.10;;;;;;5039897;28;20965;-46
2024/01/21 07:05:34;;;;;;;5.03;3.60;;;1.80;96.10;;;;;;5030917;28;20225;-46
2024/01/21 07:08:02;;;;;;;4.68;3.35;;;1.80;95.90;;;;;;5032396;28;20198;-46
2024/01/21 07:10:31;;;;;;;4.95;3.63;;;1.80;96.20;;;;;;5036808;28;20714;-47
2024/01/21 07:13:00;;;;;;;6.35;3.28;;;1.80;95.80;;;;;;5033445;28;20222;-46
2024/01/21 07:15:28;;;;;;;5.28;3.60;;;1.80;95.90;;;;;;5029537;28;20270;-46
2024/01/21 07:17:57;;;;;;;4.47;3.25;;;1.80;96.20;;;;;;5034499;28;20236;-45
2024/01/21 07:20:26;;;;;;;5.78;3.40;;;1.80;96.10;;;;;;5034534;28;20216;-47
2024/01/21 07:22:55;;;;;;;5.10;3.22;;;1.80;95.90;;;;;;5049023;28;20213;-46
2024/01/21 07:25:25;;;;;;;4.88;3.67;;;1.80;96.20;;;;;;5037945;28;20267;-45
2024/01/21 07:27:53;;;;;;;4.55;3.30;;;1.80;95.80;;;;;;5032670;28;20652;-47
2024/01/21 07:30:21;;;;;;;4.90;3.20;;;1.80;96.20;;;;;;5039241;28;20223;-46
2024/01/21 07:32:50;;;;;;;6.50;3.70;;;1.80;96.10;;;;;;5035791;28;20214;-46
2024/01/21 07:35:23;;;;;;;6.07;3.15;;;1.80;95.80;;;;;;5033114;28;20221;-45
2024/01/21 07:37:52;;;;;;;5.60;3.90;;;1.80;96.00;;;;;;5037466;28;20311;-45
2024/01/21 07:40:20;;;;;;;4.25;2.33;;;1.80;95.80;;;;;;5041429;28;20208;-45
2024/01/21 07:42:48;;;;;;;5.20;3.65;;;1.80;95.90;;;;;;5036387;28;20315;-46
2024/01/21 07:45:16;;;;;;;4.82;3.40;;;1.80;95.80;;;;;;5042918;28;20215;-45
2024/01/21 07:47:46;;;;;;;5.80;4.30;;;1.80;95.80;;;;;;5038003;28;20223;-46
2024/01/21 07:50:14;;;;;;;5.35;3.15;;;1.80;95.80;;;;;;5036133;28;20270;-45
2024/01/21 07:52:45;;;;;;;5.50;3.50;;;1.80;96.10;;;;;;5041971;28;20219;-46
2024/01/21 07:55:14;;;;;;;5.60;3.67;;;1.80;96.10;;;;;;5020100;28;20217;-48
2024/01/21 07:57:42;;;;;;;5.15;3.90;;;1.80;96.60;;;;;;5032519;28;20221;-50
2024/01/21 08:00:11;;;;;;;5.32;3.97;;;1.80;95.80;;;;;;5045745;28;20632;-45
2024/01/21 08:02:39;;;;;;;4.93;4.00;;;1.80;95.80;;;;;;5034997;28;20255;-47
2024/01/21 08:05:08;;;;;;;4.20;2.95;;;1.80;95.80;;;;;;5040508;28;20217;-45
2024/01/21 08:07:37;;;;;;;5.97;3.85;;;1.80;95.80;;;;;;5031724;28;20288;-45
2024/01/21 08:10:08;;;;;;;7.55;4.45;;;1.80;95.80;;;;;;5039460;28;20228;-45
2024/01/21 08:12:37;;;;;;;6.25;3.67;;;1.80;95.80;;;;;;5039070;28;20227;-45
2024/01/21 08:15:07;;;;;;;4.70;3.30;;;1.80;95.80;;;;;;5037060;28;20236;-45
2024/01/21 08:17:35;;;;;;;8.57;4.80;;;1.80;95.80;;;;;;5038594;28;20216;-45
2024/01/21 08:20:05;;;;;;;5.22;3.92;;;1.80;95.80;;;;;;5037594;28;20304;-45
2024/01/21 08:22:34;;;;;;;7.10;3.88;;;1.80;95.80;;;;;;5032268;28;20754;-45
2024/01/21 08:25:06;;;;;;;8.30;4.53;;;1.80;95.80;;;;;;5036328;28;20244;-45
2024/01/21 08:27:35;;;;;;;6.97;4.10;;;1.80;95.80;;;;;;5043093;28;20190;-46
2024/01/21 08:30:08;;;;;;;5.60;3.58;;;1.80;95.80;;;;;;5048621;28;20310;-46
2024/01/21 08:32:37;;;;;;;5.90;3.90;;;1.80;95.70;;;;;;5040221;28;20241;-45
2024/01/21 08:35:07;;;;;;;5.50;4.10;;;1.80;95.50;;;;;;5038317;28;20227;-45
2024/01/21 08:37:35;;;;;;;5.03;3.78;;;1.80;95.50;;;;;;5025373;28;20713;-46
2024/01/21 08:40:07;;;;;;;6.45;4.50;;;1.80;95.80;;;;;;5038064;28;20308;-45
2024/01/21 08:42:35;;;;;;;5.47;4.07;;;1.80;95.80;;;;;;5043841;28;20221;-45
2024/01/21 08:45:05;;;;;;;6.85;4.35;;;1.80;95.40;;;;;;5039434;28;20224;-45
2024/01/21 08:47:33;;;;;;;5.63;3.97;;;1.80;95.40;;;;;;5040540;28;20662;-45
2024/01/21 08:50:02;;;;;;;6.40;3.83;;;1.80;96.30;;;;;;5041479;28;20220;-46
2024/01/21 08:52:31;;;;;;;5.53;3.38;;;1.80;95.30;;;;;;5033985;28;20228;-47
2024/01/21 08:54:59;;;;;;;6.20;4.47;;;1.80;95.80;;;;;;5040963;28;20218;-46
2024/01/21 08:57:29;;;;;;;6.40;4.05;;;1.80;95.80;;;;;;5042362;28;20205;-45
2024/01/21 08:59:57;;;;;;;6.28;4.15;;;1.80;95.80;;;;;;5039319;28;20217;-47
2024/01/21 09:02:28;;;;;;;7.00;4.47;;;1.80;95.80;;;;;;5051750;28;20221;-45
2024/01/21 09:04:57;;;;;;;6.70;4.50;;;1.80;95.80;;;;;;5044716;28;20250;-48
2024/01/21 09:07:25;;;;;;;5.75;4.60;;;1.80;95.80;;;;;;5041794;28;20689;-46
2024/01/21 09:09:53;;;;;;;6.53;4.00;;;1.80;95.90;;;;;;5036059;28;20217;-46
2024/01/21 09:12:22;;;;;;;7.05;3.90;;;1.80;95.80;;;;;;5042706;28;20598;-45
2024/01/21 09:14:51;;;;;;;6.72;4.57;;;1.80;95.80;;;;;;5041712;28;20212;-45
2024/01/21 09:17:20;;;;;;;8.00;4.65;;;1.90;95.80;;;;;;5040378;28;20267;-46
2024/01/21 09:19:49;;;;;;;7.28;4.05;;;1.80;95.80;;;;;;5042218;28;20221;-48
2024/01/21 09:22:18;;;;;;;6.30;3.78;;;1.90;95.80;;;;;;5030862;28;20220;-47
2024/01/21 09:24:47;;;;;;;7.50;4.05;;;1.90;95.80;;;;;;5044079;28;20274;-46
2024/01/21 09:27:16;;;;;;;5.43;4.35;;;1.90;96.20;;;;;;5037700;28;20660;-46
2024/01/21 09:29:45;;;;;;;6.20;3.70;;;1.90;95.90;;;;;;5035919;28;20233;-47
2024/01/21 09:32:15;;;;;;;7.28;3.42;;;1.90;96.20;;;;;;5041714;28;20229;-46
2024/01/21 09:34:44;;;;;;;6.05;4.28;;;1.90;95.80;;;;;;5043396;28;20222;-46
2024/01/21 09:37:12;;;;;;;6.38;3.90;;;1.90;96.00;;;;;;5043571;28;20197;-46
2024/01/21 09:39:40;;;;;;;3.65;2.95;;;1.90;96.20;;;;;;5043982;28;20743;-46
2024/01/21 09:42:09;;;;;;;5.10;3.72;;;2.00;96.60;;;;;;5041612;28;20213;-46
2024/01/21 09:44:37;;;;;;;5.65;3.83;;;2.00;96.70;;;;;;5034354;28;20246;-48
2024/01/21 09:47:05;;;;;;;5.80;4.03;;;2.00;96.90;;;;;;5042049;28;20201;-47
2024/01/21 09:49:36;;;;;;;7.07;4.32;;;2.00;96.90;;;;;;5047251;28;20213;-46
2024/01/21 09:52:05;;;;;;;6.00;3.55;;;2.00;97.00;;;;;;5041166;28;20255;-46
2024/01/21 09:54:34;;;;;;;5.35;3.83;;;2.00;96.90;;;;;;5041709;28;20228;-47
2024/01/21 09:57:05;;;;;;;6.05;3.75;;;2.00;97.00;;;;;;5037717;28;20193;-46
2024/01/21 09:59:34;;;;;;;6.22;3.42;;;2.10;97.20;;;;;;5044109;28;20307;-45
2024/01/21 10:02:02;;;;;;;3.83;3.40;;;2.10;97.20;;;;;;5037842;28;20299;-46
2024/01/21 10:04:35;;;;;;;4.80;3.33;;;2.10;97.50;;;;;;5030547;28;20251;-46
2024/01/21 10:07:03;;;;;;;4.25;3.00;;;2.10;97.50;;;;;;5044176;28;20215;-46
2024/01/21 10:09:31;;;;;;;5.65;4.07;;;2.10;97.70;;;;;;5044473;28;20701;-46
2024/01/21 10:12:03;;;;;;;5.72;3.30;;;2.10;97.60;;;;;;5048668;28;20217;-46
2024/01/21 10:14:31;;;;;;;4.63;3.35;;;2.10;97.60;;;;;;5040008;28;20221;-45
2024/01/21 10:17:01;;;;;;;5.35;3.25;;;2.10;97.70;;;;;;5043153;28;20197;-46
2024/01/21 10:19:31;;;;;;;4.88;3.17;;;2.10;97.80;;;;;;5040399;28;20216;-46
2024/01/21 10:22:13;;;;;;;4.75;2.90;;;2.10;97.90;;;;;;5038425;28;20236;-45
2024/01/21 10:24:43;;;;;;;5.20;2.83;;;2.10;97.90;;;;;;5032563;28;20225;-45
2024/01/21 10:27:12;;;;;;;5.18;3.22;;;2.10;98.00;;;;;;5041830;28;20204;-45
2024/01/21 10:29:42;;;;;;;3.97;3.08;;;2.10;98.20;;;;;;5037369;28;20599;-45
2024/01/21 10:32:11;;;;;;;5.78;3.28;;;2.10;98.30;;;;;;5043740;28;20663;-45
2024/01/21 10:34:40;;;;;;;5.13;3.30;;;2.20;98.20;;;;;;5033860;28;20266;-45
2024/01/21 10:37:10;;;;;;;4.15;3.13;;;2.20;98.30;;;;;;5040249;28;20229;-46
2024/01/21 10:39:39;;;;;;;4.50;2.90;;;2.10;98.30;;;;;;5038349;28;20642;-45
2024/01/21 10:42:07;;;;;;;5.43;3.45;;;2.10;98.40;;;;;;5041639;28;20217;-45
2024/01/21 10:44:36;;;;;;;6.97;3.33;;;2.10;98.50;;;;;;5043089;28;20244;-46
2024/01/21 10:47:05;;;;;;;5.32;3.65;;;2.10;98.60;;;;;;5049062;28;20197;-45
2024/01/21 10:49:34;;;;;;;4.65;3.30;;;2.10;99.10;;;;;;5046100;28;20208;-45
2024/01/21 10:52:03;;;;;;;4.50;2.90;;;2.10;98.60;;;;;;5047994;28;20212;-45
2024/01/21 10:54:33;;;;;;;5.45;3.08;;;2.10;98.70;;;;;;5041162;28;20255;-45
2024/01/21 10:57:02;;;;;;;4.72;3.35;;;2.10;98.70;;;;;;5037433;28;20197;-45
2024/01/21 10:59:31;;;;;;;4.88;2.80;;;2.10;98.80;;;;;;5045254;28;20213;-45
2024/01/21 11:02:02;;;;;;;4.80;3.35;;;2.10;98.80;;;;;;5038984;28;20292;-45
2024/01/21 11:04:30;;;;;;;4.93;2.75;;;2.20;98.90;;;;;;5039081;28;20300;-45
2024/01/21 11:07:02;;;;;;;4.45;2.63;;;2.20;98.90;;;;;;5045004;28;20268;-45
2024/01/21 11:09:36;;;;;;;4.15;2.70;;;2.20;98.90;;;;;;5039783;28;20248;-45
2024/01/21 11:12:05;;;;;;;4.40;3.15;;;2.20;99.00;;;;;;5043208;28;20222;-45
2024/01/21 11:14:35;;;;;;;4.10;2.70;;;2.20;98.90;;;;;;5038233;28;20217;-45
2024/01/21 11:17:05;;;;;;;3.70;2.72;;;2.20;98.80;;;;;;5045860;28;20197;-46
2024/01/21 11:19:39;;;;;;;4.13;2.70;;;2.30;99.00;;;;;;5045413;28;20227;-45
2024/01/21 11:22:11;;;;;;;4.05;2.97;;;2.20;98.80;;;;;;5038239;28;20304;-45
2024/01/21 11:24:45;;;;;;;3.40;3.10;;;2.30;99.00;;;;;;5042980;28;20213;-45
2024/01/21 11:27:18;;;;;;;4.88;3.30;;;2.30;99.00;;;;;;5046862;28;20283;-45
2024/01/21 11:29:48;;;;;;;4.13;2.72;;;2.30;98.80;;;;;;5017157;28;20265;-44
2024/01/21 11:32:22;;;;;;;4.70;3.70;;;2.30;98.90;;;;;;5040009;28;20244;-45
2024/01/21 11:34:51;;;;;;;4.57;3.15;;;2.30;99.40;;;;;;5035235;28;20217;-45
2024/01/21 11:37:19;;;;;;;4.68;3.33;;;2.30;98.90;;;;;;5034668;28;20300;-44
2024/01/21 11:39:49;;;;;;;4.40;3.15;;;2.30;98.90;;;;;;5036489;28;20221;-45
2024/01/21 11:42:17;;;;;;;5.00;3.63;;;2.30;99.00;;;;;;5039582;28;20224;-45
2024/01/21 11:44:45;;;;;;;5.38;3.50;;;2.30;99.10;;;;;;5043349;28;20232;-45
2024/01/21 11:47:15;;;;;;;5.47;3.10;;;2.30;99.10;;;;;;5039346;28;20219;-45
2024/01/21 11:49:43;;;;;;;3.45;2.83;;;2.30;99.20;;;;;;5021572;28;20222;-45
2024/01/21 11:52:12;;;;;;;4.72;2.60;;;2.40;99.20;;;;;;5044660;28;20217;-44
2024/01/21 11:54:40;;;;;;;4.53;3.22;;;2.30;99.20;;;;;;5038071;28;20240;-45
2024/01/21 11:57:10;;;;;;;4.68;3.17;;;2.30;99.20;;;;;;5035366;28;20193;-45
2024/01/21 11:59:38;;;;;;;5.30;3.47;;;2.30;99.20;;;;;;5029322;28;20216;-45
2024/01/21 12:02:08;;;;;;;3.83;2.75;;;2.30;99.10;;;;;;5039868;28;20224;-45
2024/01/21 12:04:37;;;;;;;4.72;3.13;;;2.40;99.30;;;;;;5035073;28;20302;-45
2024/01/21 12:07:08;;;;;;;4.80;3.08;;;2.30;99.30;;;;;;5044255;28;20719;-45
2024/01/21 12:09:37;;;;;;;4.45;2.90;;;2.30;99.30;;;;;;5044222;28;20249;-45
2024/01/21 12:12:09;;;;;;;4.05;3.15;;;2.40;99.30;;;;;;5039332;28;20295;-45
2024/01/21 12:14:38;;;;;;;4.05;2.40;;;2.30;99.20;;;;;;5043667;28;20217;-45
2024/01/21 12:17:06;;;;;;;5.07;3.03;;;2.40;99.30;;;;;;5039741;28;20193;-45
2024/01/21 12:19:34;;;;;;;4.88;3.50;;;2.30;99.30;;;;;;5040074;28;20219;-45
2024/01/21 12:22:02;;;;;;;5.15;3.20;;;2.30;99.40;;;;;;5037695;28;20768;-45
2024/01/21 12:24:31;;;;;;;4.90;3.17;;;2.30;99.40;;;;;;5036083;28;20252;-46
2024/01/21 12:27:00;;;;;;;6.28;4.57;;;2.40;99.60;;;;;;5046704;28;20189;-44
2024/01/21 12:29:37;;;;;;;4.80;3.50;;;2.40;99.80;;;;;;5042487;28;20302;-44
2024/01/21 12:32:06;;;;;;;4.88;3.35;;;2.50;99.90;;;;;;5031421;28;20231;-45
2024/01/21 12:34:35;;;;;;;6.63;4.30;;;2.50;99.90;;;;;;5032316;28;20221;-44
2024/01/21 12:37:06;;;;;;;5.82;3.60;;;2.40;99.90;;;;;;5037547;28;20675;-44
2024/01/21 12:39:35;;;;;;;5.45;3.80;;;2.40;99.90;;;;;;5044819;28;20221;-45
2024/01/21 12:42:03;;;;;;;4.32;3.40;;;2.40;99.90;;;;;;5042614;28;20217;-45
2024/01/21 12:44:32;;;;;;;5.72;3.15;;;2.40;99.90;;;;;;5046004;28;20255;-46
2024/01/21 12:47:02;;;;;;;5.57;3.67;;;2.40;99.90;;;;;;5031082;28;20186;-49
2024/01/21 12:49:31;;;;;;;7.00;4.25;;;2.40;99.90;;;;;;5037616;28;20669;-48
2024/01/21 12:52:00;;;;;;;7.07;4.43;;;2.40;99.90;;;;;;5039068;28;20224;-46
2024/01/21 12:54:28;;;;;;;5.85;4.10;;;2.40;99.90;;;;;;5034774;28;20255;-46
2024/01/21 12:57:00;;;;;;;5.05;3.75;;;2.40;99.90;;;;;;5031947;28;20284;-50
2024/01/21 12:59:28;;;;;;;6.55;4.95;;;2.40;99.90;;;;;;5038695;28;20224;-45
2024/01/21 13:02:01;;;;;;;6.25;3.95;;;2.40;99.90;;;;;;5034805;28;20214;-46
2024/01/21 13:04:29;;;;;;;4.50;2.97;;;2.40;99.90;;;;;;5038801;28;20228;-46
2024/01/21 13:06:57;;;;;;;4.93;3.70;;;2.40;99.90;;;;;;5044957;28;20638;-48